createdAt,value
2019-03-12T00:00:05.570Z,3.37
2019-03-12T00:02:32.493Z,3.44
2019-03-12T00:04:59.451Z,3.12
2019-03-12T00:07:26.382Z,3.19
2019-03-12T00:09:53.940Z,3.19
2019-03-12T00:12:20.291Z,3.31
2019-03-12T00:14:47.249Z,3.44
2019-03-12T00:17:14.209Z,3.25
2019-03-12T00:19:41.143Z,3.31
2019-03-12T00:22:08.080Z,3.31
2019-03-12T00:24:35.007Z,3.25
2019-03-12T00:27:01.942Z,3.31
2019-03-12T00:29:28.869Z,3.19
2019-03-12T00:31:55.848Z,3.19
2019-03-12T00:34:22.770Z,3.19
2019-03-12T00:36:49.708Z,3.25
2019-03-12T00:39:16.652Z,2.75
2019-03-12T00:41:43.576Z,3.06
2019-03-12T00:44:10.566Z,2.94
2019-03-12T00:46:37.546Z,3.12
2019-03-12T00:49:04.482Z,3.12
2019-03-12T00:51:31.438Z,3.06
2019-03-12T00:53:58.392Z,3.00
2019-03-12T00:56:25.365Z,2.94
2019-03-12T00:58:52.330Z,3.06
2019-03-12T01:01:19.286Z,3.25
2019-03-12T01:03:46.229Z,3.19
2019-03-12T01:06:13.143Z,2.94
2019-03-12T01:08:40.135Z,3.00
2019-03-12T01:11:07.090Z,3.12
2019-03-12T01:13:34.027Z,2.94
2019-03-12T01:16:00.954Z,3.00
2019-03-12T01:18:27.860Z,3.31
2019-03-12T01:20:54.852Z,3.19
2019-03-12T01:23:21.827Z,3.06
2019-03-12T01:25:48.732Z,3.25
2019-03-12T01:28:15.644Z,3.25
2019-03-12T01:30:42.554Z,3.31
2019-03-12T01:33:09.511Z,3.19
2019-03-12T01:35:36.424Z,3.31
2019-03-12T01:38:03.357Z,3.44
2019-03-12T01:40:30.308Z,3.25
2019-03-12T01:42:57.246Z,3.19
2019-03-12T01:45:24.195Z,3.25
2019-03-12T01:47:51.101Z,3.56
2019-03-12T01:50:18.087Z,3.50
2019-03-12T01:52:45.096Z,3.56
2019-03-12T01:55:12.078Z,3.44
2019-03-12T01:57:45.711Z,3.56
2019-03-12T02:00:13.280Z,3.56
2019-03-12T02:02:40.213Z,3.56
2019-03-12T02:05:07.179Z,3.31
2019-03-12T02:07:34.177Z,3.50
2019-03-12T02:10:01.082Z,3.50
2019-03-12T02:12:27.975Z,3.50
2019-03-12T02:14:54.883Z,3.50
2019-03-12T02:17:21.790Z,3.69
2019-03-12T02:19:48.709Z,3.62
2019-03-12T02:22:15.641Z,3.44
2019-03-12T02:24:52.017Z,3.62
2019-03-12T02:27:09.544Z,3.56
2019-03-12T02:29:36.487Z,3.62
2019-03-12T02:32:03.565Z,3.44
2019-03-12T02:34:30.524Z,3.75
2019-03-12T02:36:57.488Z,3.44
2019-03-12T02:39:24.406Z,3.94
2019-03-12T02:41:51.313Z,3.94
2019-03-12T02:44:18.224Z,3.69
2019-03-12T02:46:45.195Z,3.56
2019-03-12T02:49:12.126Z,3.75
2019-03-12T02:51:39.083Z,3.81
2019-03-12T02:54:06.062Z,3.69
2019-03-12T02:56:32.992Z,3.69
2019-03-12T02:58:59.913Z,3.75
2019-03-12T03:01:28.775Z,3.69
2019-03-12T03:03:55.774Z,3.75
2019-03-12T03:06:31.002Z,3.81
2019-03-12T03:08:57.963Z,3.75
2019-03-12T03:11:24.930Z,4.06
2019-03-12T03:13:51.852Z,4.25
2019-03-12T03:16:18.792Z,4.00
2019-03-12T03:18:45.728Z,3.94
2019-03-12T03:21:12.660Z,3.94
2019-03-12T03:23:39.572Z,3.94
2019-03-12T03:26:06.630Z,4.00
2019-03-12T03:28:33.559Z,3.94
2019-03-12T03:31:00.464Z,4.06
2019-03-12T03:33:27.362Z,4.19
2019-03-12T03:35:54.268Z,4.12
2019-03-12T03:38:21.202Z,4.19
2019-03-12T03:40:48.135Z,4.19
2019-03-12T03:43:15.048Z,4.37
2019-03-12T03:45:42.106Z,4.06
2019-03-12T03:48:08.939Z,4.00
2019-03-12T03:50:35.862Z,4.00
2019-03-12T03:53:03.625Z,4.37
2019-03-12T03:55:30.548Z,4.12
2019-03-12T03:57:57.566Z,4.12
2019-03-12T04:00:24.451Z,4.00
2019-03-12T04:02:51.490Z,4.25
2019-03-12T04:05:18.486Z,4.44
2019-03-12T04:07:45.425Z,4.31
2019-03-12T04:10:12.411Z,4.12
2019-03-12T04:12:39.342Z,4.19
2019-03-12T04:15:07.087Z,4.19
2019-03-12T04:17:34.069Z,4.25
2019-03-12T04:20:00.990Z,4.25
2019-03-12T04:22:27.928Z,4.31
2019-03-12T04:24:54.842Z,4.00
2019-03-12T04:27:21.767Z,4.31
2019-03-12T04:29:48.670Z,4.37
2019-03-12T04:32:15.582Z,3.94
2019-03-12T04:34:42.550Z,4.25
2019-03-12T04:37:09.523Z,4.56
2019-03-12T04:39:36.421Z,4.12
2019-03-12T04:42:03.356Z,4.31
2019-03-12T04:44:30.289Z,4.37
2019-03-12T04:46:57.237Z,4.31
2019-03-12T04:49:24.148Z,4.19
2019-03-12T04:51:51.071Z,4.31
2019-03-12T04:54:17.986Z,4.37
2019-03-12T04:56:46.013Z,4.12
2019-03-12T04:59:12.944Z,4.06
2019-03-12T05:01:39.849Z,4.06
2019-03-12T05:04:06.910Z,4.12
2019-03-12T05:06:33.817Z,4.31
2019-03-12T05:09:00.734Z,4.25
2019-03-12T05:11:27.738Z,4.19
2019-03-12T05:14:06.512Z,4.06
2019-03-12T05:16:33.452Z,4.06
2019-03-12T05:19:00.390Z,4.25
2019-03-12T05:21:27.315Z,4.06
2019-03-12T05:23:54.248Z,4.12
2019-03-12T05:26:21.167Z,4.31
2019-03-12T05:28:48.210Z,4.06
2019-03-12T05:31:15.134Z,4.06
2019-03-12T05:33:42.146Z,4.25
2019-03-12T05:36:09.171Z,3.87
2019-03-12T05:38:36.242Z,4.06
2019-03-12T05:41:03.383Z,4.31
2019-03-12T05:43:30.413Z,4.25
2019-03-12T05:45:57.379Z,4.31
2019-03-12T05:48:24.303Z,4.25
2019-03-12T05:50:51.262Z,4.31
2019-03-12T05:53:18.222Z,3.75
2019-03-12T05:55:45.141Z,3.94
2019-03-12T05:58:12.049Z,4.06
2019-03-12T06:00:38.954Z,4.06
2019-03-12T06:03:06.106Z,4.19
2019-03-12T06:05:33.032Z,4.25
2019-03-12T06:07:59.990Z,4.12
2019-03-12T06:10:27.046Z,3.94
2019-03-12T06:12:53.997Z,3.75
2019-03-12T06:15:20.974Z,4.12
2019-03-12T06:17:47.889Z,4.06
2019-03-12T06:20:14.882Z,4.31
2019-03-12T06:22:41.898Z,4.19
2019-03-12T06:25:08.840Z,4.25
2019-03-12T06:27:36.775Z,4.12
2019-03-12T06:30:03.930Z,4.12
2019-03-12T06:32:36.368Z,3.94
2019-03-12T06:35:08.249Z,4.37
2019-03-12T06:37:41.563Z,4.19
2019-03-12T06:41:12.724Z,4.25
2019-03-12T06:43:45.153Z,4.12
2019-03-12T06:47:16.346Z,4.25
2019-03-12T06:49:49.964Z,4.25
2019-03-12T06:52:25.504Z,4.25
2019-03-12T06:54:58.962Z,4.44
2019-03-12T06:57:43.570Z,4.44
2019-03-12T07:00:17.365Z,4.50
2019-03-12T07:02:52.799Z,4.50
2019-03-12T07:05:41.499Z,4.56
2019-03-12T07:08:17.054Z,4.50
2019-03-12T07:11:48.492Z,4.69
2019-03-12T07:14:22.642Z,4.75
2019-03-12T07:16:53.185Z,4.62
2019-03-12T07:19:27.631Z,4.31
2019-03-12T07:22:03.044Z,4.31
2019-03-12T07:24:37.366Z,4.37
2019-03-12T07:27:10.715Z,4.62
2019-03-12T07:29:46.142Z,4.37
2019-03-12T07:32:20.541Z,4.62
2019-03-12T07:34:54.071Z,4.69
2019-03-12T07:37:33.573Z,4.62
2019-03-12T07:40:06.125Z,5.00
2019-03-12T07:42:38.137Z,5.00
2019-03-12T07:45:10.844Z,4.94
2019-03-12T07:48:13.419Z,4.81
2019-03-12T07:50:46.194Z,5.06
2019-03-12T07:53:58.867Z,5.12
2019-03-12T07:56:25.590Z,4.94
2019-03-12T07:59:00.135Z,4.81
2019-03-12T08:01:31.661Z,5.31
2019-03-12T08:04:03.234Z,5.00
2019-03-12T08:06:35.851Z,5.12
2019-03-12T08:09:10.148Z,5.12
2019-03-12T08:12:40.187Z,5.06
2019-03-12T08:15:23.417Z,4.94
2019-03-12T08:18:01.821Z,5.06
2019-03-12T08:20:35.247Z,5.06
2019-03-12T08:23:10.644Z,5.25
2019-03-12T08:25:43.886Z,5.06
2019-03-12T08:28:15.700Z,5.37
2019-03-12T08:30:48.521Z,5.12
2019-03-12T08:33:23.060Z,5.25
2019-03-12T08:35:59.496Z,5.56
2019-03-12T08:38:41.067Z,5.37
2019-03-12T08:41:12.649Z,5.31
2019-03-12T08:43:45.313Z,5.37
2019-03-12T08:46:22.263Z,5.19
2019-03-12T08:48:55.278Z,5.50
2019-03-12T08:52:01.062Z,5.37
2019-03-12T08:54:33.518Z,5.31
2019-03-12T08:57:08.046Z,5.19
2019-03-12T08:59:43.427Z,5.31
2019-03-12T09:02:19.082Z,5.56
2019-03-12T09:05:49.009Z,5.56
2019-03-12T09:08:21.375Z,5.69
2019-03-12T09:10:54.162Z,5.81
2019-03-12T09:13:28.197Z,5.75
2019-03-12T09:16:02.694Z,5.87
2019-03-12T09:20:40.621Z,6.19
2019-03-12T09:23:12.213Z,5.94
2019-03-12T09:26:00.789Z,5.94
2019-03-12T09:28:32.395Z,5.87
2019-03-12T09:31:05.142Z,5.75
2019-03-12T09:33:39.659Z,5.94
2019-03-12T09:36:13.085Z,5.87
2019-03-12T09:38:51.276Z,5.81
2019-03-12T09:41:29.887Z,6.25
2019-03-12T09:44:01.473Z,6.31
2019-03-12T09:46:38.123Z,6.37
2019-03-12T09:49:13.754Z,6.37
2019-03-12T09:51:46.296Z,6.37
2019-03-12T09:54:17.912Z,6.50
2019-03-12T09:56:57.406Z,6.44
2019-03-12T09:59:30.012Z,6.62
2019-03-12T10:02:02.477Z,6.31
2019-03-12T10:04:36.085Z,6.62
2019-03-12T10:07:12.529Z,6.56
2019-03-12T10:10:19.489Z,7.00
2019-03-12T10:12:51.877Z,6.75
2019-03-12T10:16:23.175Z,7.00
2019-03-12T10:19:01.877Z,7.06
2019-03-12T10:21:49.488Z,7.25
2019-03-12T10:26:25.737Z,7.56
2019-03-12T10:29:01.122Z,7.44
2019-03-12T10:31:39.654Z,7.37
2019-03-12T10:34:13.192Z,7.56
2019-03-12T10:37:11.797Z,7.19
2019-03-12T10:39:54.085Z,7.69
2019-03-12T10:42:26.514Z,7.62
2019-03-12T10:45:05.038Z,7.50
2019-03-12T10:47:33.041Z,7.87
2019-03-12T10:50:00.029Z,7.56
2019-03-12T10:52:26.969Z,7.62
2019-03-12T10:54:53.887Z,7.75
2019-03-12T10:57:21.709Z,8.31
2019-03-12T10:59:47.814Z,8.25
2019-03-12T11:02:14.825Z,8.44
2019-03-12T11:04:41.808Z,8.19
2019-03-12T11:07:16.521Z,8.13
2019-03-12T11:09:35.742Z,8.31
2019-03-12T11:12:02.743Z,8.13
2019-03-12T11:14:30.254Z,8.50
2019-03-12T11:16:57.236Z,8.25
2019-03-12T11:19:24.166Z,8.44
2019-03-12T11:21:51.752Z,8.25
2019-03-12T11:24:18.683Z,8.31
2019-03-12T11:26:45.677Z,8.31
2019-03-12T11:29:12.644Z,8.13
2019-03-12T11:31:39.693Z,8.19
2019-03-12T11:34:06.841Z,8.38
2019-03-12T11:36:33.904Z,8.31
2019-03-12T11:39:01.781Z,8.69
2019-03-12T11:41:29.066Z,8.56
2019-03-12T11:43:56.022Z,9.00
2019-03-12T11:46:23.573Z,8.69
2019-03-12T11:48:50.533Z,8.94
2019-03-12T11:51:17.475Z,9.06
2019-03-12T11:53:44.408Z,8.69
2019-03-12T11:56:11.350Z,8.88
2019-03-12T11:58:38.401Z,8.88
2019-03-12T12:01:06.772Z,8.81
2019-03-12T12:03:33.802Z,8.94
2019-03-12T12:06:00.824Z,9.38
2019-03-12T12:08:27.853Z,9.31
2019-03-12T12:10:54.798Z,9.44
2019-03-12T12:13:21.742Z,9.69
2019-03-12T12:15:48.714Z,9.81
2019-03-12T12:18:15.677Z,9.75
2019-03-12T12:20:42.624Z,9.75
2019-03-12T12:23:09.598Z,9.44
2019-03-12T12:25:37.059Z,9.25
2019-03-12T12:28:04.057Z,9.63
2019-03-12T12:30:31.083Z,9.31
2019-03-12T12:32:58.354Z,9.25
2019-03-12T12:35:26.244Z,9.19
2019-03-12T12:37:53.219Z,9.25
2019-03-12T12:40:20.235Z,9.50
2019-03-12T12:42:47.195Z,9.56
2019-03-12T12:45:15.382Z,9.25
2019-03-12T12:47:42.380Z,9.13
2019-03-12T12:50:09.396Z,9.44
2019-03-12T12:52:36.382Z,9.56
2019-03-12T12:55:03.491Z,9.44
2019-03-12T12:57:30.568Z,9.69
2019-03-12T12:59:57.552Z,9.38
2019-03-12T13:02:24.630Z,9.63
2019-03-12T13:04:51.630Z,9.31
2019-03-12T13:07:18.623Z,9.63
2019-03-12T13:09:45.598Z,9.81
2019-03-12T13:12:12.545Z,9.44
2019-03-12T13:14:41.771Z,9.50
2019-03-12T13:17:06.666Z,9.63
2019-03-12T13:19:33.684Z,9.69
2019-03-12T13:22:00.905Z,9.69
2019-03-12T13:24:27.983Z,9.56
2019-03-12T13:26:54.986Z,9.63
2019-03-12T13:29:21.924Z,9.81
2019-03-12T13:31:48.925Z,9.44
2019-03-12T13:34:15.958Z,9.44
2019-03-12T13:36:42.916Z,9.44
2019-03-12T13:39:09.980Z,9.25
2019-03-12T13:41:37.011Z,9.50
2019-03-12T13:44:04.058Z,9.69
2019-03-12T13:46:31.021Z,9.50
2019-03-12T13:48:58.013Z,9.56
2019-03-12T13:51:24.990Z,9.81
2019-03-12T13:53:52.709Z,9.50
2019-03-12T13:56:19.763Z,9.81
2019-03-12T13:58:46.814Z,9.56
2019-03-12T14:01:14.361Z,9.69
2019-03-12T14:03:41.378Z,9.69
2019-03-12T14:06:08.399Z,9.75
2019-03-12T14:08:35.351Z,9.63
2019-03-12T14:11:02.349Z,9.44
2019-03-12T14:13:29.359Z,9.38
2019-03-12T14:15:56.587Z,9.31
2019-03-12T14:18:24.113Z,9.44
2019-03-12T14:20:57.922Z,9.63
2019-03-12T14:23:28.361Z,9.50
2019-03-12T14:25:55.399Z,9.44
2019-03-12T14:28:22.374Z,9.38
2019-03-12T14:30:49.434Z,9.44
2019-03-12T14:33:16.415Z,9.31
2019-03-12T14:35:51.400Z,9.38
2019-03-12T14:38:10.500Z,9.56
2019-03-12T14:40:37.517Z,9.56
2019-03-12T14:43:04.711Z,9.25
2019-03-12T14:45:31.810Z,9.31
2019-03-12T14:47:58.844Z,9.25
2019-03-12T14:50:25.804Z,9.44
2019-03-12T14:52:57.521Z,9.50
2019-03-12T14:55:24.503Z,9.38
2019-03-12T14:57:51.487Z,9.31
2019-03-12T15:00:19.817Z,9.31
2019-03-12T15:02:46.790Z,9.38
2019-03-12T15:05:13.787Z,9.44
2019-03-12T15:07:40.781Z,9.25
2019-03-12T15:10:08.809Z,9.31
2019-03-12T15:12:35.818Z,9.38
2019-03-12T15:15:02.972Z,9.13
2019-03-12T15:17:29.938Z,9.31
2019-03-12T15:19:56.936Z,9.31
2019-03-12T15:22:23.914Z,9.25
2019-03-12T15:24:50.957Z,9.31
2019-03-12T15:27:17.957Z,9.13
2019-03-12T15:29:44.969Z,9.13
2019-03-12T15:32:11.953Z,9.31
2019-03-12T15:34:38.939Z,9.50
2019-03-12T15:37:06.100Z,9.38
2019-03-12T15:39:33.120Z,9.13
2019-03-12T15:42:00.093Z,9.31
2019-03-12T15:44:27.299Z,9.31
2019-03-12T15:46:54.306Z,8.94
2019-03-12T15:49:21.280Z,9.31
2019-03-12T15:51:48.252Z,9.19
2019-03-12T15:54:15.279Z,9.25
2019-03-12T15:56:42.274Z,9.06
2019-03-12T15:59:09.500Z,9.25
2019-03-12T16:01:36.544Z,9.06
2019-03-12T16:04:03.782Z,9.06
2019-03-12T16:06:30.742Z,9.13
2019-03-12T16:08:57.802Z,9.19
2019-03-12T16:11:24.761Z,9.06
2019-03-12T16:18:47.633Z,9.13
2019-03-12T16:21:14.685Z,9.00
2019-03-12T16:23:41.650Z,9.06
2019-03-12T16:26:08.589Z,9.19
2019-03-12T16:28:35.577Z,9.06
2019-03-12T16:31:02.667Z,8.81
2019-03-12T16:33:29.614Z,8.63
2019-03-12T16:35:56.587Z,8.69
2019-03-12T16:38:23.546Z,8.63
2019-03-12T16:40:51.182Z,8.56
2019-03-12T16:43:18.185Z,8.44
2019-03-12T16:45:45.458Z,8.69
2019-03-12T16:48:12.433Z,8.69
2019-03-12T16:50:42.277Z,8.56
2019-03-12T16:53:09.191Z,8.69
2019-03-12T16:55:36.175Z,8.81
2019-03-12T16:58:03.240Z,8.44
2019-03-12T17:05:26.651Z,8.44
2019-03-12T17:07:53.461Z,8.56
2019-03-12T17:10:20.494Z,8.44
2019-03-12T17:12:47.457Z,8.69
2019-03-12T17:15:14.506Z,8.44
2019-03-12T17:17:41.521Z,8.75
2019-03-12T17:20:09.753Z,8.31
2019-03-12T17:22:36.726Z,8.25
2019-03-12T17:25:04.463Z,8.56
2019-03-12T17:27:31.504Z,8.56
2019-03-12T17:37:43.677Z,8.06
2019-03-12T17:40:13.569Z,8.38
2019-03-12T17:42:40.553Z,8.25
2019-03-12T17:45:08.752Z,8.44
2019-03-12T17:47:35.775Z,8.19
2019-03-12T17:50:03.230Z,8.19
2019-03-12T17:52:30.347Z,8.19
2019-03-12T17:54:57.462Z,8.13
2019-03-12T17:57:24.580Z,8.13
2019-03-12T17:59:51.670Z,7.87
2019-03-12T18:02:18.726Z,8.13
2019-03-12T18:04:45.727Z,8.00
2019-03-12T18:07:12.766Z,8.00
2019-03-12T18:09:39.717Z,8.44
2019-03-12T18:12:06.760Z,8.25
2019-03-12T18:14:33.740Z,8.38
2019-03-12T18:17:01.355Z,8.25
2019-03-12T18:19:28.403Z,8.06
2019-03-12T18:21:55.390Z,8.13
2019-03-12T18:24:22.362Z,8.06
2019-03-12T18:26:49.583Z,7.81
2019-03-12T18:29:16.610Z,8.13
2019-03-12T18:31:43.743Z,7.94
2019-03-12T18:34:10.751Z,8.06
2019-03-12T18:36:37.792Z,8.06
2019-03-12T18:39:06.733Z,7.87
2019-03-12T18:41:33.798Z,7.94
2019-03-12T18:44:00.726Z,8.00
2019-03-12T18:46:27.719Z,7.81
2019-03-12T18:48:54.691Z,7.62
2019-03-12T18:51:22.549Z,7.87
2019-03-12T18:53:49.630Z,8.13
2019-03-12T18:56:16.610Z,7.94
2019-03-12T18:58:43.580Z,8.06
2019-03-12T19:01:11.992Z,7.69
2019-03-12T19:03:38.982Z,7.94
2019-03-12T19:06:06.134Z,7.56
2019-03-12T19:08:33.209Z,7.69
2019-03-12T19:11:00.314Z,7.87
2019-03-12T19:13:27.291Z,7.94
2019-03-12T19:15:54.308Z,7.69
2019-03-12T19:18:21.543Z,7.87
2019-03-12T19:20:48.610Z,7.87
2019-03-12T19:23:16.385Z,8.00
2019-03-12T19:25:43.519Z,7.75
2019-03-12T19:28:10.610Z,7.75
2019-03-12T19:30:37.851Z,7.81
2019-03-12T19:33:07.131Z,7.62
2019-03-12T19:35:34.215Z,7.81
2019-03-12T19:38:01.297Z,8.06
2019-03-12T19:40:28.731Z,7.69
2019-03-12T19:42:55.744Z,7.75
2019-03-12T19:45:22.728Z,7.69
2019-03-12T19:47:49.719Z,7.94
2019-03-12T19:50:16.953Z,7.87
2019-03-12T19:52:44.080Z,8.13
2019-03-12T19:55:12.982Z,7.81
2019-03-12T19:57:54.047Z,7.75
2019-03-12T20:00:21.163Z,7.50
2019-03-12T20:02:48.300Z,7.69
2019-03-12T20:05:15.377Z,8.00
2019-03-12T20:07:43.512Z,7.81
2019-03-12T20:10:25.479Z,7.94
2019-03-12T20:16:07.595Z,7.75
2019-03-12T20:18:53.934Z,7.81
2019-03-12T20:21:37.972Z,7.75
2019-03-12T20:24:18.205Z,7.44
2019-03-12T20:27:10.348Z,7.62
2019-03-12T20:30:53.578Z,7.31
2019-03-12T20:33:37.060Z,7.37
2019-03-12T20:38:20.685Z,7.62
2019-03-12T20:41:00.712Z,7.62
2019-03-12T20:43:39.100Z,7.56
2019-03-12T20:46:24.349Z,7.75
2019-03-12T20:49:11.366Z,7.62
2019-03-12T20:54:02.763Z,7.56
2019-03-12T20:56:41.320Z,7.56
2019-03-12T21:00:19.347Z,7.69
2019-03-12T21:02:57.460Z,7.56
2019-03-12T21:07:47.118Z,7.50
2019-03-12T21:10:28.554Z,7.75
2019-03-12T21:13:10.754Z,7.69
2019-03-12T21:15:54.696Z,7.50
2019-03-12T21:18:37.150Z,7.69
2019-03-12T21:21:17.224Z,7.62
2019-03-12T21:26:14.166Z,7.56
2019-03-12T21:28:59.535Z,7.37
2019-03-12T21:31:26.743Z,7.62
2019-03-12T21:33:53.779Z,7.44
2019-03-12T21:36:20.889Z,7.44
2019-03-12T21:38:47.894Z,7.19
2019-03-12T21:41:15.274Z,7.50
2019-03-12T21:43:42.944Z,7.50
2019-03-12T21:46:10.065Z,7.75
2019-03-12T21:48:38.025Z,7.44
2019-03-12T21:51:05.083Z,7.56
2019-03-12T21:53:32.052Z,7.56
2019-03-12T21:56:00.739Z,7.50
2019-03-12T21:58:27.967Z,7.62
2019-03-12T22:00:55.626Z,7.75
2019-03-12T22:03:23.360Z,7.62
2019-03-12T22:05:50.345Z,7.31
2019-03-12T22:08:17.486Z,7.56
2019-03-12T22:10:44.619Z,7.56
2019-03-12T22:13:12.505Z,7.56
2019-03-12T22:15:43.546Z,7.56
2019-03-12T22:18:10.690Z,7.87
2019-03-12T22:20:38.321Z,7.50
2019-03-12T22:23:09.388Z,7.44
2019-03-12T22:25:37.084Z,7.62
2019-03-12T22:28:04.495Z,7.87
2019-03-12T22:30:31.548Z,7.50
2019-03-12T22:32:58.518Z,7.62
2019-03-12T22:35:26.779Z,7.87
2019-03-12T22:38:23.916Z,7.69
2019-03-12T22:40:50.931Z,7.87
2019-03-12T22:43:19.386Z,7.75
2019-03-12T22:45:46.415Z,7.50
2019-03-12T22:48:13.915Z,7.50
2019-03-12T22:50:43.003Z,7.75
2019-03-12T22:53:10.567Z,7.75
2019-03-12T22:55:37.650Z,7.75
2019-03-12T22:58:04.725Z,7.62
2019-03-12T23:00:36.435Z,7.62
2019-03-12T23:03:03.558Z,7.94
2019-03-12T23:05:30.546Z,7.56
2019-03-12T23:07:57.476Z,7.81
2019-03-12T23:10:24.542Z,7.87
2019-03-12T23:12:51.564Z,7.81
2019-03-12T23:15:19.196Z,7.87
2019-03-12T23:17:46.162Z,7.94
2019-03-12T23:20:13.220Z,7.81
2019-03-12T23:22:40.173Z,7.62
2019-03-12T23:25:07.353Z,7.94
2019-03-12T23:27:34.289Z,7.94
2019-03-12T23:30:01.209Z,7.87
2019-03-12T23:32:28.151Z,8.38
2019-03-12T23:34:55.065Z,8.19
2019-03-12T23:37:22.518Z,8.50
2019-03-12T23:39:49.523Z,8.50
2019-03-12T23:42:17.502Z,8.50
2019-03-12T23:44:44.436Z,8.31
2019-03-12T23:47:11.401Z,8.31
2019-03-12T23:49:38.389Z,8.19
2019-03-12T23:52:05.301Z,8.50
2019-03-12T23:54:32.236Z,8.19
2019-03-12T23:56:59.180Z,8.50
2019-03-12T23:59:26.097Z,8.31
